Time;durP1;ratioP1;P1;durP2;ratioP2;P2;SDS_P1;SDS_P2;PMS_P1;PMS_P2;Temp;Humidity;BMP_temperature;BMP_pressure;BME280_temperature;BME280_humidity;BME280_pressure;Samples;Min_cycle;Max_cycle;Signal;HPM_P1;HPM_P2
2021/08/29 00:02:15;;;;;;;6.85;3.28;;;;;;;13.98;81.10;101234.25;5017278;28;20547;-77
2021/08/29 00:04:41;;;;;;;9.43;3.72;;;;;;;14.02;80.72;101232.53;5056551;28;20040;-77
2021/08/29 00:07:06;;;;;;;8.23;3.78;;;;;;;14.02;80.60;101236.16;5024469;28;20083;-77
2021/08/29 00:09:32;;;;;;;10.70;3.72;;;;;;;14.02;80.96;101229.72;5035717;28;20053;-77
2021/08/29 00:11:57;;;;;;;7.45;3.45;;;;;;;14.06;80.25;101231.59;5023668;28;20508;-77
2021/08/29 00:14:23;;;;;;;10.35;4.38;;;;;;;14.03;80.59;101232.22;5015390;28;20640;-78
2021/08/29 00:16:48;;;;;;;9.40;3.70;;;;;;;14.02;80.09;101226.94;5026351;28;20492;-77
2021/08/29 00:19:14;;;;;;;10.13;3.67;;;;;;;14.05;80.09;101229.13;5039584;28;20032;-77
2021/08/29 00:21:39;;;;;;;10.90;3.75;;;;;;;14.03;79.78;101240.59;5048290;28;20030;-78
2021/08/29 00:24:05;;;;;;;7.93;3.63;;;;;;;14.04;80.27;101233.88;5045491;28;20021;-77
2021/08/29 00:26:30;;;;;;;13.27;4.10;;;;;;;13.97;79.99;101227.84;5040663;28;20037;-78
2021/08/29 00:28:56;;;;;;;10.43;3.53;;;;;;;13.97;79.96;101233.41;5051310;28;20037;-77
2021/08/29 00:31:22;;;;;;;10.02;3.72;;;;;;;13.94;79.90;101231.22;5048205;28;20025;-77
2021/08/29 00:33:47;;;;;;;9.32;4.32;;;;;;;13.94;80.48;101228.44;5037969;28;20084;-77
2021/08/29 00:36:12;;;;;;;9.88;3.95;;;;;;;13.92;79.85;101227.06;5025576;28;20022;-77
2021/08/29 00:38:38;;;;;;;6.18;3.20;;;;;;;13.93;79.86;101220.34;5034813;28;20048;-77
2021/08/29 00:41:08;;;;;;;11.43;4.18;;;;;;;13.92;79.62;101224.28;5050476;28;20548;-77
2021/08/29 00:43:33;;;;;;;9.75;3.78;;;;;;;13.90;79.95;101221.81;5046539;28;20029;-77
2021/08/29 00:45:59;;;;;;;10.13;3.85;;;;;;;13.86;79.39;101223.50;5057669;28;20055;-77
2021/08/29 00:48:24;;;;;;;10.88;4.32;;;;;;;13.82;79.46;101220.50;5049502;28;20021;-77
2021/08/29 00:50:50;;;;;;;7.78;3.80;;;;;;;13.79;79.35;101215.50;5022839;28;20033;-77
2021/08/29 00:53:20;;;;;;;7.18;3.17;;;;;;;13.77;79.28;101216.94;5042814;28;20030;-77
2021/08/29 00:55:48;;;;;;;6.20;3.30;;;;;;;13.70;79.36;101217.28;5037353;28;20033;-77
2021/08/29 00:58:15;;;;;;;12.18;4.13;;;;;;;13.68;79.96;101213.97;5052287;28;20524;-77
2021/08/29 01:00:43;;;;;;;9.30;3.90;;;;;;;13.66;79.75;101215.41;5045335;28;20104;-77
2021/08/29 01:03:12;;;;;;;8.43;3.72;;;;;;;13.61;80.11;101214.31;5046709;28;20053;-77
2021/08/29 01:05:41;;;;;;;9.18;3.90;;;;;;;13.59;79.71;101210.16;5012254;28;20029;-77
2021/08/29 01:08:09;;;;;;;13.13;4.50;;;;;;;13.60;80.06;101211.84;5027564;28;20087;-77
2021/08/29 01:10:38;;;;;;;12.63;4.47;;;;;;;13.56;79.96;101205.19;5028528;28;20448;-77
2021/08/29 01:13:03;;;;;;;8.88;3.33;;;;;;;13.52;80.17;101204.13;5043055;28;20029;-77
2021/08/29 01:15:30;;;;;;;8.45;4.28;;;;;;;13.50;80.23;101209.97;5035963;28;20656;-77
2021/08/29 01:17:56;;;;;;;9.20;3.88;;;;;;;13.44;80.80;101207.56;5033417;28;20077;-77
2021/08/29 01:20:53;;;;;;;13.18;4.82;;;;;;;13.43;81.19;101212.31;5042326;28;20446;-77
2021/08/29 01:23:19;;;;;;;10.73;4.05;;;;;;;13.41;80.87;101206.19;5044839;28;20029;-77
2021/08/29 01:25:48;;;;;;;10.50;3.97;;;;;;;13.39;81.29;101206.47;5020074;28;20040;-77
2021/08/29 01:28:15;;;;;;;9.00;4.13;;;;;;;13.34;81.36;101214.06;5004276;28;20025;-77
2021/08/29 01:30:41;;;;;;;8.93;4.32;;;;;;;13.30;81.98;101210.22;5036640;28;20034;-77
2021/08/29 01:33:07;;;;;;;10.65;4.38;;;;;;;13.29;81.77;101202.97;5005363;28;20029;-77
2021/08/29 01:35:33;;;;;;;14.48;5.32;;;;;;;13.24;83.42;101212.19;5035287;28;20040;-78
2021/08/29 01:37:59;;;;;;;10.55;4.18;;;;;;;13.27;83.38;101213.59;5002585;28;20021;-77
2021/08/29 01:40:24;;;;;;;8.73;4.20;;;;;;;13.26;81.99;101209.13;5019868;28;20036;-77
2021/08/29 01:42:50;;;;;;;11.88;4.13;;;;;;;13.28;81.79;101209.69;5037008;28;20037;-77
2021/08/29 01:45:15;;;;;;;12.35;4.53;;;;;;;13.25;82.13;101204.66;5052936;28;20040;-77
2021/08/29 01:47:41;;;;;;;12.45;4.25;;;;;;;13.22;81.95;101202.47;5045707;28;20029;-77
2021/08/29 01:50:07;;;;;;;7.55;4.05;;;;;;;13.22;81.99;101199.69;5040008;28;20049;-77
2021/08/29 01:52:33;;;;;;;9.27;4.30;;;;;;;13.23;82.00;101204.13;5015938;28;20038;-77
2021/08/29 01:54:58;;;;;;;8.20;4.40;;;;;;;13.22;82.33;101200.50;5029362;28;20035;-77
2021/08/29 01:57:24;;;;;;;11.55;4.10;;;;;;;13.23;82.13;101202.16;5055847;28;20021;-77
2021/08/29 01:59:50;;;;;;;8.68;4.38;;;;;;;13.24;81.33;101200.22;5054229;28;20033;-77
2021/08/29 02:02:17;;;;;;;8.15;4.07;;;;;;;13.19;81.54;101203.88;5035952;28;20103;-77
2021/08/29 02:04:44;;;;;;;10.18;4.22;;;;;;;13.21;81.65;101203.59;5016341;28;20117;-77
2021/08/29 02:07:26;;;;;;;7.95;4.10;;;;;;;13.23;81.28;101207.72;5017852;28;20029;-77
2021/08/29 02:09:55;;;;;;;6.63;3.97;;;;;;;13.15;81.20;101195.28;5050804;28;20115;-77
2021/08/29 02:12:20;;;;;;;10.32;4.65;;;;;;;13.19;81.50;101198.31;5054539;28;20044;-77
2021/08/29 02:15:07;;;;;;;8.90;3.97;;;;;;;13.16;81.36;101201.69;5045055;28;20027;-77
2021/08/29 02:17:32;;;;;;;6.78;3.80;;;;;;;13.12;81.05;101212.59;5045723;28;20036;-77
2021/08/29 02:19:58;;;;;;;7.82;3.83;;;;;;;13.14;80.86;101206.72;5022077;28;20112;-78
2021/08/29 02:22:24;;;;;;;10.07;4.10;;;;;;;13.09;81.20;101203.97;5044126;28;20108;-77
2021/08/29 02:24:49;;;;;;;10.82;3.90;;;;;;;13.09;81.14;101213.19;5045381;28;20036;-77
2021/08/29 02:27:18;;;;;;;9.95;4.13;;;;;;;13.09;81.49;101204.84;5009221;28;20296;-77
2021/08/29 02:29:44;;;;;;;10.52;4.00;;;;;;;13.06;80.80;101212.94;5034695;28;20112;-77
2021/08/29 02:32:10;;;;;;;9.05;3.83;;;;;;;13.02;80.66;101204.34;5037263;28;20041;-77
2021/08/29 02:34:36;;;;;;;8.77;3.60;;;;;;;13.01;80.55;101210.19;5042325;28;20021;-77
2021/08/29 02:37:01;;;;;;;7.72;4.05;;;;;;;12.99;80.50;101207.72;5018605;28;20025;-77
2021/08/29 02:39:27;;;;;;;7.65;3.85;;;;;;;12.96;80.19;101205.50;5019457;28;20040;-77
2021/08/29 02:41:53;;;;;;;8.15;4.13;;;;;;;12.94;80.38;101213.31;5024674;28;20037;-77
2021/08/29 02:44:18;;;;;;;9.48;3.88;;;;;;;12.89;80.14;101207.78;5031761;28;20025;-77
2021/08/29 02:46:44;;;;;;;8.63;3.88;;;;;;;12.86;80.19;101209.22;5045851;28;20032;-77
2021/08/29 02:49:09;;;;;;;9.82;4.18;;;;;;;12.85;80.22;101209.53;5040716;28;20041;-77
2021/08/29 02:51:35;;;;;;;7.75;3.60;;;;;;;12.83;80.74;101211.75;5033236;28;20024;-77
2021/08/29 02:54:01;;;;;;;8.55;3.90;;;;;;;12.78;80.30;101200.66;5003495;28;20021;-77
2021/08/29 02:56:28;;;;;;;9.25;4.38;;;;;;;12.72;81.04;101199.84;5032532;28;20478;-77
2021/08/29 02:58:54;;;;;;;11.05;4.72;;;;;;;12.70;80.96;101200.16;5026598;28;20048;-77
2021/08/29 03:01:19;;;;;;;8.27;4.10;;;;;;;12.65;81.30;101197.41;5035782;28;20045;-77
2021/08/29 03:03:45;;;;;;;10.27;4.05;;;;;;;12.68;81.46;101205.19;5019520;28;20112;-77
2021/08/29 03:06:11;;;;;;;6.13;3.90;;;;;;;12.70;81.37;101205.75;5048713;28;20025;-77
2021/08/29 03:08:36;;;;;;;8.60;4.30;;;;;;;12.67;81.49;101200.72;5053945;28;20482;-77
2021/08/29 03:11:02;;;;;;;7.95;4.13;;;;;;;12.69;81.79;101206.03;5047068;28;20099;-77
2021/08/29 03:13:27;;;;;;;9.82;4.68;;;;;;;12.65;82.03;101203.00;5028848;28;20017;-77
2021/08/29 03:15:53;;;;;;;8.50;3.97;;;;;;;12.61;81.59;101199.09;5001985;28;20036;-77
2021/08/29 03:18:18;;;;;;;11.02;3.90;;;;;;;12.62;81.21;101195.22;5030541;28;20025;-77
2021/08/29 03:20:44;;;;;;;10.93;4.28;;;;;;;12.64;81.27;101195.75;5026307;28;20099;-77
2021/08/29 03:23:10;;;;;;;8.00;4.22;;;;;;;12.59;81.34;101193.03;5019506;28;20060;-76
2021/08/29 03:25:35;;;;;;;8.95;3.97;;;;;;;12.59;82.33;101201.38;5016459;28;20025;-77
2021/08/29 03:28:01;;;;;;;7.15;4.10;;;;;;;12.53;82.42;101200.56;5002649;28;20026;-77
2021/08/29 03:30:27;;;;;;;12.30;4.65;;;;;;;12.53;81.59;101199.72;5003534;28;20481;-77
2021/08/29 03:32:52;;;;;;;10.63;5.00;;;;;;;12.54;82.52;101190.28;4997923;28;20025;-76
2021/08/29 03:35:18;;;;;;;10.50;5.00;;;;;;;12.51;82.02;101190.84;5003034;28;20040;-76
2021/08/29 03:37:44;;;;;;;10.82;4.30;;;;;;;12.53;81.35;101183.00;4999245;28;20366;-77
2021/08/29 03:40:10;;;;;;;9.15;4.25;;;;;;;12.50;81.32;101189.16;5003259;28;20025;-77
2021/08/29 03:42:35;;;;;;;9.20;4.60;;;;;;;12.51;82.08;101185.28;5015974;28;20497;-77
2021/08/29 03:45:01;;;;;;;9.52;5.00;;;;;;;12.50;81.68;101184.44;4999753;28;20025;-77
2021/08/29 03:47:27;;;;;;;8.45;4.28;;;;;;;12.49;81.84;101181.94;5006549;28;20437;-77
2021/08/29 03:49:53;;;;;;;10.15;3.90;;;;;;;12.47;81.71;101184.19;5003246;28;20022;-77
2021/08/29 03:52:19;;;;;;;7.45;3.90;;;;;;;12.43;81.08;101186.72;5043095;28;20056;-77
2021/08/29 03:54:45;;;;;;;6.93;4.18;;;;;;;12.44;81.39;101188.38;5035120;28;20030;-77
2021/08/29 03:57:11;;;;;;;10.20;4.57;;;;;;;12.43;80.95;101189.50;5054169;28;20037;-77
2021/08/29 03:59:37;;;;;;;7.38;4.13;;;;;;;12.44;80.89;101184.75;5050564;28;20021;-77
2021/08/29 04:02:06;;;;;;;7.40;4.20;;;;;;;12.40;81.18;101186.47;5021343;28;20041;-77
2021/08/29 04:04:32;;;;;;;7.05;3.60;;;;;;;12.36;80.84;101183.41;5002959;28;20040;-77
2021/08/29 04:07:04;;;;;;;9.57;3.80;;;;;;;12.38;81.12;101180.34;5000731;28;20116;-77
2021/08/29 04:09:31;;;;;;;8.13;4.10;;;;;;;12.37;81.17;101171.19;5048683;28;20460;-77
2021/08/29 04:11:57;;;;;;;9.68;4.20;;;;;;;12.33;81.46;101177.59;5032521;28;20461;-77
2021/08/29 04:14:22;;;;;;;7.55;3.75;;;;;;;12.33;80.86;101174.81;5040701;28;20096;-77
2021/08/29 04:16:49;;;;;;;7.63;4.30;;;;;;;12.25;81.24;101177.09;5032056;28;20037;-77
2021/08/29 04:19:14;;;;;;;8.15;4.20;;;;;;;12.27;81.13;101174.03;5002809;28;20561;-77
2021/08/29 04:21:40;;;;;;;7.72;3.88;;;;;;;12.25;80.98;101177.09;5002529;28;20029;-77
2021/08/29 04:24:06;;;;;;;7.80;4.00;;;;;;;12.23;80.57;101178.50;5000939;28;20116;-77
2021/08/29 04:26:32;;;;;;;10.80;4.00;;;;;;;12.20;81.09;101176.28;5050224;28;20063;-77
2021/08/29 04:28:58;;;;;;;10.40;4.20;;;;;;;12.18;80.83;101178.56;5042874;28;20037;-77
2021/08/29 04:31:28;;;;;;;6.85;3.75;;;;;;;12.16;80.86;101183.56;5063481;28;20495;-77
2021/08/29 04:33:54;;;;;;;7.35;3.65;;;;;;;12.15;80.67;101181.91;5034062;28;20032;-77
2021/08/29 04:36:19;;;;;;;8.50;3.97;;;;;;;12.14;80.85;101183.84;5032831;28;20525;-77
2021/08/29 04:38:45;;;;;;;6.25;3.85;;;;;;;12.10;80.67;101193.09;5021207;28;20599;-77
2021/08/29 04:41:11;;;;;;;7.97;3.63;;;;;;;12.06;80.63;101187.25;5016179;28;20367;-77
2021/08/29 04:43:37;;;;;;;5.82;3.47;;;;;;;12.03;80.83;101194.22;5024298;28;20397;-77
2021/08/29 04:46:04;;;;;;;9.05;3.80;;;;;;;12.01;80.51;101195.66;5055828;28;20033;-77
2021/08/29 04:48:29;;;;;;;7.85;3.50;;;;;;;12.06;80.24;101195.59;5044739;28;20078;-77
2021/08/29 04:50:55;;;;;;;9.32;3.70;;;;;;;11.99;80.24;101189.53;5053657;28;20045;-77
2021/08/29 04:53:20;;;;;;;8.00;3.53;;;;;;;11.96;80.61;101187.31;5047649;28;20046;-77
2021/08/29 04:55:46;;;;;;;7.00;3.70;;;;;;;11.94;80.46;101190.38;5045603;28;20086;-77
2021/08/29 04:58:11;;;;;;;6.40;3.65;;;;;;;11.92;80.51;101195.38;5057425;28;20036;-76
2021/08/29 05:00:37;;;;;;;6.55;3.28;;;;;;;11.91;80.19;101195.69;5045164;28;20033;-77
2021/08/29 05:03:02;;;;;;;7.32;3.65;;;;;;;11.87;80.42;101192.66;5032802;28;20521;-77
2021/08/29 05:05:28;;;;;;;6.53;3.45;;;;;;;11.85;80.46;101198.50;5056636;28;20035;-77
2021/08/29 05:07:53;;;;;;;8.57;3.85;;;;;;;11.83;80.22;101203.47;5043645;28;20037;-77
2021/08/29 05:10:19;;;;;;;6.57;3.75;;;;;;;11.80;80.36;101211.56;5047388;28;20413;-77
2021/08/29 05:12:44;;;;;;;7.93;3.60;;;;;;;11.76;80.50;101214.09;5036067;28;20052;-77
2021/08/29 05:15:10;;;;;;;6.45;3.20;;;;;;;11.73;80.60;101219.38;5006344;28;20028;-77
2021/08/29 05:17:36;;;;;;;5.55;3.65;;;;;;;11.76;80.17;101214.09;5002111;28;20112;-77
2021/08/29 05:20:01;;;;;;;6.13;3.55;;;;;;;11.71;80.33;101216.91;5022458;28;20035;-77
2021/08/29 05:22:27;;;;;;;6.82;3.60;;;;;;;11.70;80.24;101220.81;5032589;28;20029;-77
2021/08/29 05:24:52;;;;;;;7.22;3.45;;;;;;;11.66;80.42;101221.66;4996736;28;20032;-78
2021/08/29 05:27:18;;;;;;;5.68;3.30;;;;;;;11.61;80.40;101226.09;5018570;28;20044;-77
2021/08/29 05:29:43;;;;;;;6.85;3.13;;;;;;;11.67;80.09;101224.13;5020256;28;20029;-77
2021/08/29 05:32:09;;;;;;;7.30;3.78;;;;;;;11.65;80.48;101220.81;5024667;28;20029;-77
2021/08/29 05:34:34;;;;;;;7.05;3.65;;;;;;;11.59;80.36;101222.78;5035805;28;20032;-77
2021/08/29 05:37:00;;;;;;;6.63;3.08;;;;;;;11.60;80.54;101218.06;5019716;28;20029;-77
2021/08/29 05:39:26;;;;;;;5.80;3.65;;;;;;;11.55;80.69;101220.84;5009640;28;20033;-77
2021/08/29 05:41:51;;;;;;;7.32;4.00;;;;;;;11.58;80.27;101223.06;5045494;28;20038;-77
2021/08/29 05:44:17;;;;;;;7.43;3.40;;;;;;;11.58;80.78;101223.06;5051177;28;20385;-77
2021/08/29 05:46:42;;;;;;;8.23;3.70;;;;;;;11.60;80.67;101226.41;5027686;28;20477;-77
2021/08/29 05:49:07;;;;;;;7.85;3.58;;;;;;;11.61;80.95;101220.53;5015309;28;20033;-77
2021/08/29 05:51:33;;;;;;;8.35;3.90;;;;;;;11.63;81.00;101226.66;5045349;28;20389;-77
2021/08/29 05:53:58;;;;;;;8.68;3.10;;;;;;;11.69;80.49;101223.84;5018945;28;20478;-77
2021/08/29 05:56:24;;;;;;;6.22;3.40;;;;;;;11.74;80.94;101219.09;5031411;28;20017;-77
2021/08/29 05:58:49;;;;;;;5.93;3.10;;;;;;;11.76;80.84;101219.66;5007733;28;20037;-76
2021/08/29 06:01:15;;;;;;;5.38;3.28;;;;;;;11.84;80.98;101221.84;4994229;28;20485;-77
2021/08/29 06:03:41;;;;;;;6.20;3.45;;;;;;;11.91;81.48;101229.91;5033949;28;20033;-76
2021/08/29 06:06:07;;;;;;;6.50;3.67;;;;;;;12.02;81.53;101219.56;5004202;28;20434;-76
2021/08/29 06:08:32;;;;;;;6.72;3.38;;;;;;;12.10;81.83;101232.88;5036810;28;20481;-76
2021/08/29 06:10:58;;;;;;;6.45;3.65;;;;;;;12.19;82.13;101231.16;5015647;28;20090;-76
2021/08/29 06:13:23;;;;;;;7.28;3.97;;;;;;;12.26;83.62;101228.06;5015827;28;20021;-76
2021/08/29 06:15:49;;;;;;;9.25;4.20;;;;;;;12.35;83.27;101222.72;5018512;28;20478;-76
2021/08/29 06:18:14;;;;;;;9.65;4.53;;;;;;;12.44;83.25;101219.03;5019589;28;20037;-76
2021/08/29 06:20:41;;;;;;;10.05;5.03;;;;;;;12.55;82.86;101228.13;5006729;28;20386;-76
2021/08/29 06:23:06;;;;;;;12.32;5.43;;;;;;;12.65;85.79;101236.44;5035806;28;20111;-76
2021/08/29 06:25:32;;;;;;;11.43;4.80;;;;;;;12.77;83.06;101226.88;5019659;28;20064;-76
2021/08/29 06:27:57;;;;;;;11.95;5.18;;;;;;;12.89;83.28;101224.53;5016715;28;20041;-72
2021/08/29 06:30:23;;;;;;;9.73;4.68;;;;;;;13.01;83.25;101232.50;5048772;28;20033;-76
2021/08/29 06:32:48;;;;;;;13.00;6.05;;;;;;;13.10;86.84;101234.38;5005414;28;20075;-77
2021/08/29 06:35:14;;;;;;;13.02;4.78;;;;;;;13.23;83.01;101241.19;5001334;28;20033;-77
2021/08/29 06:37:39;;;;;;;14.27;5.13;;;;;;;13.37;84.33;101239.44;5016125;28;20032;-77
2021/08/29 06:40:05;;;;;;;15.23;6.22;;;;;;;13.51;87.26;101244.28;5003184;28;20091;-77
2021/08/29 06:42:31;;;;;;;12.30;5.43;;;;;;;13.62;85.93;101238.31;5034580;28;20385;-77
2021/08/29 06:44:56;;;;;;;11.45;5.75;;;;;;;13.77;89.02;101236.47;5015097;28;20029;-77
2021/08/29 06:47:22;;;;;;;12.68;5.88;;;;;;;13.89;86.01;101236.88;5022045;28;20036;-75
2021/08/29 06:49:47;;;;;;;11.60;4.88;;;;;;;14.02;84.00;101230.56;5032439;28;20036;-75
2021/08/29 06:52:13;;;;;;;12.52;5.88;;;;;;;14.17;86.14;101232.31;5029687;28;20029;-75
2021/08/29 06:54:38;;;;;;;9.80;5.30;;;;;;;14.30;84.81;101230.75;5055380;28;20473;-76
2021/08/29 06:57:04;;;;;;;14.30;5.97;;;;;;;14.42;86.41;101233.06;5030741;28;20035;-76
2021/08/29 06:59:30;;;;;;;17.63;6.07;;;;;;;14.55;86.22;101234.31;5038044;28;20035;-76
2021/08/29 07:01:55;;;;;;;18.02;6.13;;;;;;;14.69;86.42;101232.41;5024025;28;20053;-75
2021/08/29 07:04:21;;;;;;;12.50;5.65;;;;;;;14.81;85.56;101235.56;5049969;28;20044;-75
2021/08/29 07:06:48;;;;;;;12.27;6.22;;;;;;;14.93;85.86;101235.06;5050396;28;20472;-76
2021/08/29 07:09:13;;;;;;;13.43;6.03;;;;;;;15.07;85.66;101233.16;5017950;28;20062;-75
2021/08/29 07:11:39;;;;;;;17.42;6.43;;;;;;;15.25;86.38;101228.63;5050052;28;20444;-75
2021/08/29 07:14:04;;;;;;;16.48;5.90;;;;;;;15.35;85.58;101233.19;5029362;28;20478;-75
2021/08/29 07:16:30;;;;;;;13.60;6.03;;;;;;;15.48;85.68;101242.75;5042512;28;20490;-76
2021/08/29 07:18:57;;;;;;;20.02;7.38;;;;;;;15.57;85.99;101238.09;5042298;28;20069;-75
2021/08/29 07:21:22;;;;;;;12.38;5.30;;;;;;;15.74;84.82;101229.09;5040314;28;20033;-75
2021/08/29 07:23:48;;;;;;;15.45;5.90;;;;;;;15.88;84.04;101226.31;5044024;28;20041;-76
2021/08/29 07:26:14;;;;;;;12.60;4.97;;;;;;;16.00;84.69;101235.03;5044113;28;20102;-76
2021/08/29 07:28:41;;;;;;;17.83;6.63;;;;;;;16.09;84.73;101241.53;5047102;28;20029;-75
2021/08/29 07:31:07;;;;;;;15.75;6.32;;;;;;;16.18;84.56;101234.03;5049582;28;20036;-76
2021/08/29 07:33:32;;;;;;;17.95;6.88;;;;;;;16.30;84.70;101231.53;5034003;28;20030;-76
2021/08/29 07:35:58;;;;;;;15.60;6.05;;;;;;;16.43;83.89;101238.25;5050945;28;20029;-76
2021/08/29 07:38:24;;;;;;;17.40;5.85;;;;;;;16.54;82.94;101230.41;5047370;28;20033;-76
2021/08/29 07:40:49;;;;;;;13.20;5.97;;;;;;;16.63;84.01;101233.28;5050473;28;20033;-76
2021/08/29 07:43:15;;;;;;;16.88;6.47;;;;;;;16.73;83.17;101225.47;5050691;28;20037;-76
2021/08/29 07:45:40;;;;;;;16.83;6.30;;;;;;;16.82;83.12;101225.56;5044487;28;20091;-76
2021/08/29 07:48:06;;;;;;;15.60;6.00;;;;;;;16.89;82.95;101216.72;5036809;28;20041;-75
2021/08/29 07:50:31;;;;;;;12.93;5.82;;;;;;;16.91;82.64;101217.19;5042853;28;20033;-76
2021/08/29 07:52:57;;;;;;;18.17;6.15;;;;;;;17.03;82.50;101225.06;5026958;28;20036;-75
2021/08/29 07:55:22;;;;;;;15.02;5.38;;;;;;;17.15;81.28;101222.47;5040895;28;20033;-76
2021/08/29 07:57:48;;;;;;;15.55;6.15;;;;;;;17.20;81.44;101230.75;5046572;28;20033;-76
2021/08/29 08:00:14;;;;;;;14.95;5.75;;;;;;;17.27;81.13;101224.69;5046960;28;20029;-76
2021/08/29 08:02:39;;;;;;;14.40;6.18;;;;;;;17.25;81.00;101227.81;5044967;28;20099;-76
2021/08/29 08:05:05;;;;;;;15.98;6.15;;;;;;;17.36;81.33;101225.56;5052560;28;20033;-76
2021/08/29 08:07:31;;;;;;;18.02;5.85;;;;;;;17.34;80.90;101225.88;5054102;28;20076;-77
2021/08/29 08:09:56;;;;;;;15.57;5.85;;;;;;;17.36;80.58;101226.41;5046570;28;20028;-75
2021/08/29 08:12:22;;;;;;;14.77;5.55;;;;;;;17.46;80.25;101228.06;5044049;28;20041;-76
2021/08/29 08:14:47;;;;;;;19.45;6.97;;;;;;;17.45;80.15;101232.03;5030965;28;20026;-77
2021/08/29 08:17:13;;;;;;;16.55;6.53;;;;;;;17.41;79.73;101225.41;5035733;28;20037;-77
2021/08/29 08:19:38;;;;;;;16.73;6.25;;;;;;;17.33;79.99;101231.84;5027209;28;20112;-77
2021/08/29 08:22:04;;;;;;;14.10;6.25;;;;;;;17.32;80.62;101232.97;5033849;28;20026;-78
2021/08/29 08:24:29;;;;;;;18.92;6.15;;;;;;;17.22;80.93;101227.63;5024749;28;20033;-80
2021/08/29 08:26:55;;;;;;;15.98;6.07;;;;;;;17.28;80.98;101229.16;5033067;28;20540;-75
2021/08/29 08:29:21;;;;;;;12.68;5.45;;;;;;;17.36;81.16;101228.38;5040677;28;20496;-78
2021/08/29 08:31:46;;;;;;;12.77;5.25;;;;;;;17.43;80.60;101220.31;5044570;28;20517;-77
2021/08/29 08:34:11;;;;;;;15.13;5.43;;;;;;;17.51;81.24;101218.69;5020771;28;20048;-77
2021/08/29 08:36:37;;;;;;;14.50;5.90;;;;;;;17.50;80.37;101223.50;5034983;28;20040;-77
2021/08/29 08:39:03;;;;;;;11.82;5.10;;;;;;;17.48;79.80;101227.78;5039580;28;20029;-77
2021/08/29 08:41:28;;;;;;;15.32;5.25;;;;;;;17.39;79.77;101233.34;5034488;28;20025;-78
2021/08/29 08:43:54;;;;;;;18.02;5.10;;;;;;;17.41;79.69;101225.41;5049044;28;20024;-77
2021/08/29 08:46:19;;;;;;;9.93;4.40;;;;;;;17.41;79.29;101231.03;5031441;28;20540;-78
2021/08/29 08:48:46;;;;;;;14.43;4.30;;;;;;;17.51;79.04;101224.31;5015951;28;20112;-78
2021/08/29 08:51:12;;;;;;;15.23;4.20;;;;;;;17.63;77.83;101219.75;5019418;28;20115;-78
2021/08/29 08:53:37;;;;;;;10.70;4.10;;;;;;;17.65;77.52;101225.03;5003723;28;20045;-78
2021/08/29 08:56:03;;;;;;;9.80;3.83;;;;;;;17.67;76.68;101221.91;5014546;28;20195;-78
2021/08/29 08:58:29;;;;;;;8.98;3.40;;;;;;;17.72;76.36;101218.94;5038550;28;20442;-78
2021/08/29 09:00:54;;;;;;;8.48;3.78;;;;;;;17.73;76.21;101217.78;5029832;28;20029;-78
2021/08/29 09:03:20;;;;;;;12.75;4.05;;;;;;;17.80;76.42;101209.72;5038999;28;20037;-78
2021/08/29 09:05:45;;;;;;;11.27;3.97;;;;;;;17.99;76.49;101207.47;5039705;28;20036;-78
2021/08/29 09:08:11;;;;;;;13.07;3.80;;;;;;;18.04;74.84;101210.13;5033223;28;20059;-78
2021/08/29 09:10:36;;;;;;;9.35;3.85;;;;;;;17.97;74.52;101220.19;5029519;28;20036;-77
2021/08/29 09:13:06;;;;;;;8.38;3.72;;;;;;;17.94;75.57;101213.25;5018909;28;20136;-78
2021/08/29 09:15:32;;;;;;;8.38;3.47;;;;;;;18.04;74.25;101212.94;5033035;28;20036;-78
2021/08/29 09:17:57;;;;;;;8.48;3.67;;;;;;;18.20;74.18;101207.69;5038596;28;20059;-78
2021/08/29 09:20:37;;;;;;;6.20;3.03;;;;;;;18.26;73.27;101211.16;5002787;28;20025;-78
2021/08/29 09:23:10;;;;;;;7.20;3.30;;;;;;;18.32;73.21;101215.47;5003128;28;20036;-77
2021/08/29 09:25:41;;;;;;;9.32;3.28;;;;;;;18.35;73.01;101202.72;5003670;28;20149;-77
2021/08/29 09:28:15;;;;;;;13.35;3.13;;;;;;;18.44;72.04;101212.84;5004581;28;20033;-78
2021/08/29 09:30:47;;;;;;;7.93;3.22;;;;;;;18.52;72.11;101211.97;5050071;28;20705;-77
2021/08/29 09:33:13;;;;;;;8.10;3.28;;;;;;;18.67;71.97;101209.84;5056631;28;20025;-77
2021/08/29 09:35:38;;;;;;;11.98;3.10;;;;;;;18.69;72.04;101207.50;5052479;28;20547;-77
2021/08/29 09:38:05;;;;;;;8.75;3.00;;;;;;;18.68;70.65;101211.50;5021123;28;20039;-77
2021/08/29 09:40:33;;;;;;;7.13;2.92;;;;;;;18.75;71.47;101195.81;5019755;28;20025;-77
2021/08/29 09:42:59;;;;;;;11.07;3.45;;;;;;;18.83;70.21;101191.31;5018745;28;20042;-77
2021/08/29 09:45:33;;;;;;;11.95;3.10;;;;;;;18.87;70.07;101202.75;5049706;28;20036;-78
2021/08/29 09:48:03;;;;;;;8.25;2.83;;;;;;;18.88;69.66;101199.56;5020304;28;20516;-78
2021/08/29 09:50:30;;;;;;;10.05;2.88;;;;;;;18.93;70.11;101207.03;5005757;28;20032;-77
2021/08/29 09:53:06;;;;;;;8.65;3.38;;;;;;;18.94;70.00;101203.91;5035234;28;20116;-77
2021/08/29 09:55:34;;;;;;;10.02;3.45;;;;;;;18.90;69.74;101200.06;5037555;28;20111;-77
2021/08/29 09:58:00;;;;;;;10.32;2.90;;;;;;;19.05;70.44;101197.88;5019117;28;20036;-77
2021/08/29 10:00:25;;;;;;;12.02;3.15;;;;;;;19.07;69.74;101189.94;5029648;28;20033;-77
2021/08/29 10:03:04;;;;;;;8.82;3.38;;;;;;;19.16;69.71;101196.38;5037854;28;20040;-77
2021/08/29 10:05:30;;;;;;;9.75;2.75;;;;;;;19.25;69.24;101196.34;5055075;28;20401;-77
2021/08/29 10:08:06;;;;;;;7.53;2.53;;;;;;;19.41;68.63;101192.63;5048383;28;20033;-77
2021/08/29 10:10:33;;;;;;;8.93;2.92;;;;;;;19.61;68.12;101195.84;5005380;28;20057;-77
2021/08/29 10:12:58;;;;;;;8.63;2.85;;;;;;;19.63;66.31;101187.91;5035742;28;20028;-77
2021/08/29 10:15:25;;;;;;;8.93;2.90;;;;;;;19.81;68.12;101192.31;5002034;28;20029;-77
2021/08/29 10:17:51;;;;;;;10.50;2.53;;;;;;;19.85;66.02;101192.47;5038255;28;20033;-77
2021/08/29 10:20:20;;;;;;;9.35;2.78;;;;;;;20.00;66.34;101191.03;5030493;28;20025;-78
2021/08/29 10:22:46;;;;;;;12.10;2.70;;;;;;;20.16;65.51;101191.25;5029749;28;20025;-78
2021/08/29 10:25:12;;;;;;;8.05;2.42;;;;;;;20.22;63.29;101189.88;5037056;28;20038;-78
2021/08/29 10:27:38;;;;;;;9.27;2.65;;;;;;;20.34;63.23;101186.31;5051738;28;20041;-78
2021/08/29 10:30:04;;;;;;;6.22;2.60;;;;;;;20.51;63.14;101183.38;5034657;28;20036;-77
2021/08/29 10:32:34;;;;;;;7.15;1.92;;;;;;;20.57;62.00;101172.72;5013878;28;20027;-77
2021/08/29 10:35:07;;;;;;;8.35;2.80;;;;;;;20.71;63.49;101182.53;5015192;28;20021;-77
2021/08/29 10:37:32;;;;;;;;;;;;;;;20.91;62.49;101174.38;5047197;28;20037;-69
2021/08/29 10:39:58;;;;;;;9.73;2.03;;;;;;;21.02;61.85;101172.75;5041942;28;20393;-69
2021/08/29 10:42:23;;;;;;;7.53;2.35;;;;;;;21.12;61.92;101171.50;5029044;28;20033;-69
2021/08/29 10:44:49;;;;;;;6.80;2.10;;;;;;;21.24;62.29;101167.88;5027871;28;20578;-69
2021/08/29 10:47:16;;;;;;;8.10;2.42;;;;;;;21.34;61.60;101173.88;5040415;28;20033;-69
2021/08/29 10:49:41;;;;;;;8.98;2.83;;;;;;;21.36;61.41;101176.34;5028193;28;20485;-69
2021/08/29 10:52:07;;;;;;;6.65;3.05;;;;;;;21.35;60.85;101171.88;5033338;28;20052;-69
2021/08/29 10:54:32;;;;;;;8.73;2.60;;;;;;;21.29;61.41;101174.09;5025980;28;20029;-69
2021/08/29 10:56:58;;;;;;;9.40;2.40;;;;;;;21.40;61.44;101168.88;4992538;28;20044;-69
2021/08/29 10:59:24;;;;;;;9.52;2.63;;;;;;;21.34;61.26;101173.03;5026891;28;20084;-69
2021/08/29 11:02:14;;;;;;;8.52;2.38;;;;;;;21.18;61.11;101181.38;4996607;28;20068;-69
2021/08/29 11:04:43;;;;;;;8.25;2.42;;;;;;;21.19;62.29;101171.72;5029535;28;20076;-69
2021/08/29 11:07:08;;;;;;;6.70;2.40;;;;;;;21.31;62.19;101170.91;4987588;28;20029;-69
2021/08/29 11:09:34;;;;;;;10.23;2.67;;;;;;;21.34;60.71;101164.56;5000816;28;20033;-70
2021/08/29 11:12:03;;;;;;;7.53;2.22;;;;;;;21.30;60.49;101172.91;5041230;28;20033;-69
2021/08/29 11:14:48;;;;;;;9.43;2.00;;;;;;;21.25;60.79;101175.16;5039506;28;20037;-70
2021/08/29 11:17:15;;;;;;;10.40;2.50;;;;;;;21.22;61.34;101164.56;5052987;28;20063;-69
2021/08/29 11:19:42;;;;;;;8.55;2.50;;;;;;;21.26;61.64;101162.69;5032221;28;20029;-69